Time;durP1;ratioP1;P1;durP2;ratioP2;P2;SDS_P1;SDS_P2;PMS_P1;PMS_P2;Temp;Humidity;BMP_temperature;BMP_pressure;BME280_temperature;BME280_humidity;BME280_pressure;Samples;Min_cycle;Max_cycle;Signal;HPM_P1;HPM_P2
2022/08/11 00:00:19;;;;;;;1.07;0.60;;;16.90;99.90;;;;;;4998838;28;20513;-87
2022/08/11 00:02:51;;;;;;;1.23;0.60;;;16.80;99.90;;;;;;4996534;28;20568;-85
2022/08/11 00:05:20;;;;;;;1.00;0.40;;;16.80;99.90;;;;;;4996658;28;20421;-87
2022/08/11 00:07:52;;;;;;;1.33;0.43;;;16.70;99.90;;;;;;4995303;28;20475;-87
2022/08/11 00:10:20;;;;;;;1.83;0.50;;;16.70;99.90;;;;;;4996905;28;20421;-87
2022/08/11 00:12:55;;;;;;;1.60;0.53;;;16.60;99.90;;;;;;4996869;28;20523;-86
2022/08/11 00:15:23;;;;;;;2.60;0.80;;;16.60;99.90;;;;;;4995263;28;20879;-87
2022/08/11 00:17:55;;;;;;;0.80;0.43;;;16.60;99.90;;;;;;5015353;28;20447;-86
2022/08/11 00:20:28;;;;;;;1.73;1.00;;;16.50;99.90;;;;;;5016483;28;20439;-87
2022/08/11 00:23:11;;;;;;;1.23;0.40;;;16.40;99.90;;;;;;5015076;28;20430;-88
2022/08/11 00:25:45;;;;;;;0.90;0.30;;;16.40;99.90;;;;;;5016207;28;20422;-88
2022/08/11 00:28:36;;;;;;;1.70;0.30;;;16.30;99.90;;;;;;5016334;28;20428;-87
2022/08/11 00:31:08;;;;;;;1.50;0.47;;;16.30;99.90;;;;;;5014840;28;20832;-88
2022/08/11 00:33:43;;;;;;;1.20;0.20;;;16.20;99.90;;;;;;5015675;28;20430;-87
2022/08/11 00:36:12;;;;;;;1.10;0.63;;;16.20;99.90;;;;;;5015020;28;20832;-87
2022/08/11 00:38:40;;;;;;;1.10;0.30;;;16.20;99.90;;;;;;5016076;28;20487;-87
2022/08/11 00:41:29;;;;;;;0.70;0.30;;;16.20;99.90;;;;;;5015951;28;20415;-87
2022/08/11 00:44:42;;;;;;;0.90;0.20;;;16.10;99.90;;;;;;5015899;28;20499;-89
2022/08/11 00:47:32;;;;;;;1.33;0.60;;;16.10;99.90;;;;;;4955451;29;20924;-88
2022/08/11 00:50:03;;;;;;;1.57;0.53;;;16.10;99.90;;;;;;5010942;28;20483;-90
2022/08/11 00:52:47;;;;;;;2.97;0.80;;;16.10;99.90;;;;;;5014683;28;21059;-88
2022/08/11 00:55:44;;;;;;;1.23;0.73;;;16.00;99.90;;;;;;5014458;28;20580;-89
2022/08/11 00:58:46;;;;;;;3.63;0.50;;;16.00;99.90;;;;;;5014294;28;20458;-88
2022/08/11 01:01:15;;;;;;;1.07;0.33;;;16.00;99.90;;;;;;5014387;28;20428;-88
2022/08/11 01:03:53;;;;;;;1.37;0.60;;;15.90;99.90;;;;;;5015393;28;20427;-88
2022/08/11 01:06:48;;;;;;;1.47;0.77;;;15.90;99.90;;;;;;5013037;28;20978;-88
2022/08/11 01:09:27;;;;;;;1.63;0.87;;;15.90;99.90;;;;;;5015612;28;20431;-88
2022/08/11 01:12:17;;;;;;;1.30;0.40;;;15.80;99.90;;;;;;5015443;28;20432;-87
2022/08/11 01:15:11;;;;;;;2.50;0.90;;;15.80;99.90;;;;;;5015434;28;20417;-87
2022/08/11 01:17:48;;;;;;;1.37;0.50;;;15.80;99.90;;;;;;5013767;28;20439;-89
2022/08/11 01:20:22;;;;;;;1.00;0.40;;;15.80;99.90;;;;;;5015394;28;20630;-88
2022/08/11 01:23:25;;;;;;;1.40;0.47;;;15.80;99.90;;;;;;5015203;28;20424;-87
2022/08/11 01:26:46;;;;;;;1.53;0.30;;;15.80;99.90;;;;;;5015145;28;20473;-89
2022/08/11 01:29:32;;;;;;;1.10;0.30;;;15.70;99.90;;;;;;5014588;28;20486;-89
2022/08/11 01:32:14;;;;;;;4.30;0.97;;;15.70;99.90;;;;;;5015372;28;20414;-90
2022/08/11 01:35:16;;;;;;;1.13;0.30;;;15.60;99.90;;;;;;5015212;28;20412;-88
2022/08/11 01:38:18;;;;;;;1.30;0.40;;;15.50;99.90;;;;;;5015005;28;20433;-88
2022/08/11 01:40:44;;;;;;;1.13;0.60;;;15.50;99.90;;;;;;5015168;28;20418;-88
2022/08/11 01:46:36;;;;;;;1.10;0.60;;;15.40;99.90;;;;;;5014999;28;20215;-88
2022/08/11 01:49:11;;;;;;;1.70;0.53;;;15.30;99.90;;;;;;5014479;28;20950;-88
2022/08/11 01:52:09;;;;;;;0.80;0.40;;;15.20;99.90;;;;;;5013663;28;20475;-88
2022/08/11 01:55:00;;;;;;;1.10;0.43;;;15.20;99.90;;;;;;5014840;28;20418;-88
2022/08/11 01:57:43;;;;;;;1.27;0.40;;;15.20;99.90;;;;;;5014684;28;20421;-88
2022/08/11 02:00:14;;;;;;;1.00;0.50;;;15.20;99.90;;;;;;5013570;28;20437;-89
2022/08/11 02:03:29;;;;;;;1.07;0.30;;;15.20;99.90;;;;;;5014325;28;20512;-88
2022/08/11 02:06:53;;;;;;;1.10;0.50;;;15.20;99.90;;;;;;5002516;28;20475;-88
2022/08/11 02:09:26;;;;;;;1.57;0.90;;;15.20;99.90;;;;;;5013417;28;20438;-88
2022/08/11 02:11:58;;;;;;;1.10;0.40;;;15.10;99.90;;;;;;5014404;28;20914;-88
2022/08/11 02:14:36;;;;;;;0.87;0.40;;;15.10;99.90;;;;;;5013193;28;20829;-89
2022/08/11 02:17:47;;;;;;;1.30;0.80;;;15.10;99.90;;;;;;5014490;28;20453;-89
2022/08/11 02:23:42;;;;;;;1.57;0.70;;;15.00;99.90;;;;;;5014223;28;20417;-88
2022/08/11 02:26:39;;;;;;;1.90;0.57;;;15.00;99.90;;;;;;5014175;28;20477;-89
2022/08/11 02:29:17;;;;;;;1.43;1.00;;;14.90;99.90;;;;;;5013825;28;20416;-89
2022/08/11 02:35:03;;;;;;;1.67;0.43;;;14.80;99.90;;;;;;5014069;28;20420;-89
2022/08/11 02:37:32;;;;;;;0.90;0.40;;;14.80;99.90;;;;;;5014099;28;20417;-90
2022/08/11 02:40:14;;;;;;;0.80;0.40;;;14.80;99.90;;;;;;5012915;28;20919;-90
2022/08/11 02:43:26;;;;;;;1.50;0.60;;;14.80;99.90;;;;;;5013805;28;20963;-90
2022/08/11 02:46:05;;;;;;;3.17;0.73;;;14.70;99.90;;;;;;5013748;28;20457;-89
2022/08/11 02:52:04;;;;;;;2.47;0.80;;;14.80;99.90;;;;;;5013924;28;20413;-89
2022/08/11 02:54:42;;;;;;;2.07;0.63;;;14.70;99.90;;;;;;5012993;28;20516;-90
2022/08/11 02:57:32;;;;;;;1.80;0.80;;;14.70;99.90;;;;;;5014087;28;20472;-90
2022/08/11 03:00:07;;;;;;;1.47;0.70;;;14.60;99.90;;;;;;5012682;28;20513;-89
2022/08/11 03:02:52;;;;;;;1.03;0.63;;;14.50;99.90;;;;;;5011868;28;20512;-88
2022/08/11 03:05:42;;;;;;;1.70;0.60;;;14.60;99.90;;;;;;5011906;28;20469;-89
2022/08/11 03:08:17;;;;;;;1.77;0.60;;;14.50;99.90;;;;;;5013209;28;20470;-89
2022/08/11 03:16:50;;;;;;;1.33;0.30;;;14.50;99.90;;;;;;5007030;28;20468;-88
2022/08/11 03:19:37;;;;;;;1.00;0.40;;;14.50;99.90;;;;;;5011273;28;20472;-89
2022/08/11 03:22:15;;;;;;;1.33;0.57;;;14.50;99.90;;;;;;5011328;28;20941;-88
2022/08/11 03:24:59;;;;;;;2.40;0.93;;;14.40;99.90;;;;;;5010932;28;20921;-87
2022/08/11 03:27:45;;;;;;;2.43;0.50;;;14.50;99.90;;;;;;5011840;28;20422;-87
2022/08/11 03:30:33;;;;;;;1.80;0.90;;;14.40;99.90;;;;;;5012896;28;20445;-89
2022/08/11 03:36:11;;;;;;;2.17;0.70;;;14.30;99.90;;;;;;5012708;28;20933;-89
2022/08/11 03:39:00;;;;;;;1.13;0.40;;;14.30;99.90;;;;;;5012334;28;20933;-89
2022/08/11 03:41:46;;;;;;;1.60;0.47;;;14.30;99.90;;;;;;5013653;28;20551;-89
2022/08/11 03:44:20;;;;;;;1.23;0.63;;;14.20;99.90;;;;;;5013759;28;20402;-89
2022/08/11 03:47:17;;;;;;;2.60;0.50;;;14.20;99.90;;;;;;5011950;28;20477;-89
2022/08/11 03:50:01;;;;;;;1.77;0.50;;;14.20;99.90;;;;;;5013534;28;20405;-89
2022/08/11 03:52:39;;;;;;;1.67;0.73;;;14.20;99.90;;;;;;5012083;28;20414;-89
2022/08/11 03:55:15;;;;;;;1.20;0.50;;;14.20;99.90;;;;;;5012207;28;20480;-89
2022/08/11 03:58:15;;;;;;;2.93;0.90;;;14.20;99.90;;;;;;5013435;28;20415;-88
2022/08/11 04:01:33;;;;;;;1.50;0.90;;;14.20;99.90;;;;;;5013269;28;20770;-88
2022/08/11 04:04:28;;;;;;;1.40;0.80;;;14.20;99.90;;;;;;4980299;28;20972;-88
2022/08/11 04:07:16;;;;;;;1.97;1.00;;;14.20;99.90;;;;;;5012902;28;20571;-88
2022/08/11 04:10:06;;;;;;;2.00;0.73;;;14.10;99.90;;;;;;5011849;28;20434;-88
2022/08/11 04:13:25;;;;;;;2.03;0.80;;;14.10;99.90;;;;;;5013050;28;20418;-88
2022/08/11 04:16:09;;;;;;;2.50;0.73;;;14.20;99.90;;;;;;5012976;28;20420;-88
2022/08/11 04:19:18;;;;;;;2.00;0.70;;;14.20;99.90;;;;;;5011413;28;20930;-88
2022/08/11 04:21:55;;;;;;;2.03;0.97;;;14.20;99.90;;;;;;4992014;28;20457;-87
2022/08/11 04:24:57;;;;;;;2.37;1.30;;;14.20;99.90;;;;;;4993368;28;20779;-89
2022/08/11 04:27:22;;;;;;;2.30;1.20;;;14.30;99.90;;;;;;4993412;28;20903;-88
2022/08/11 04:30:41;;;;;;;1.60;0.50;;;14.30;99.90;;;;;;4993395;28;20415;-89
2022/08/11 04:33:42;;;;;;;1.77;0.70;;;14.30;99.90;;;;;;4974729;28;20178;-88
2022/08/11 04:40:04;;;;;;;5.03;2.10;;;14.40;99.90;;;;;;4997132;28;20511;-88
2022/08/11 04:46:26;;;;;;;1.67;0.67;;;14.50;99.90;;;;;;4996640;28;20536;-88
2022/08/11 05:01:41;;;;;;;2.50;0.93;;;14.80;99.90;;;;;;4996377;28;20506;-88
2022/08/11 05:07:56;;;;;;;2.97;1.10;;;15.00;99.90;;;;;;4996373;28;20465;-88
2022/08/11 05:10:42;;;;;;;2.10;0.80;;;15.20;99.90;;;;;;4996175;28;20545;-88
2022/08/11 05:36:11;;;;;;;2.83;1.80;;;16.60;99.90;;;;;;5015442;28;20769;-87
2022/08/11 05:58:02;;;;;;;1.07;0.40;;;19.80;1.00;;;;;;5015032;28;20879;-87
2022/08/11 06:00:28;;;;;;;1.00;0.60;;;20.00;1.00;;;;;;5013833;28;20423;-88
2022/08/11 06:03:00;;;;;;;1.20;0.77;;;20.30;99.90;;;;;;5013372;28;20424;-88
2022/08/11 06:05:36;;;;;;;1.33;0.50;;;20.60;1.00;;;;;;5014780;28;20527;-88
2022/08/11 06:08:06;;;;;;;1.77;0.90;;;21.00;99.90;;;;;;4997173;28;20524;-90
2022/08/11 06:10:43;;;;;;;1.40;1.00;;;21.50;1.00;;;;;;5014626;28;20807;-90
2022/08/11 06:13:13;;;;;;;1.37;0.90;;;22.10;99.90;;;;;;5013602;28;20527;-92
2022/08/11 06:15:47;;;;;;;1.13;0.70;;;22.70;99.90;;;;;;5014967;28;20449;-91
2022/08/11 06:18:14;;;;;;;2.73;0.90;;;23.20;1.00;;;;;;5014607;28;20406;-88
2022/08/11 06:20:49;;;;;;;1.23;0.67;;;24.00;99.90;;;;;;5014947;28;20454;-89
2022/08/11 06:23:22;;;;;;;1.30;0.80;;;24.50;99.90;;;;;;5015258;28;20413;-91
2022/08/11 06:25:50;;;;;;;1.30;0.70;;;25.10;99.90;;;;;;5015114;28;20468;-92
2022/08/11 06:28:19;;;;;;;2.17;0.80;;;25.60;99.90;;;;;;5014695;28;20541;-90
2022/08/11 06:30:45;;;;;;;1.70;0.90;;;26.50;99.90;;;;;;5013797;28;20478;-89
2022/08/11 06:33:28;;;;;;;0.93;0.50;;;26.80;89.40;;;;;;5013783;28;20933;-90
2022/08/11 06:36:08;;;;;;;1.60;0.60;;;27.10;42.70;;;;;;5016683;28;20417;-91
2022/08/11 06:38:49;;;;;;;2.50;0.70;;;27.60;30.20;;;;;;5014853;28;20516;-88
2022/08/11 06:41:43;;;;;;;1.27;0.40;;;27.90;22.40;;;;;;5016172;28;20811;-87
2022/08/11 06:44:11;;;;;;;1.63;0.60;;;28.20;7.00;;;;;;5011472;28;20430;-89
2022/08/11 06:46:46;;;;;;;1.87;1.13;;;28.80;8.30;;;;;;5012603;28;20560;-88
2022/08/11 06:52:00;;;;;;;1.37;0.60;;;28.80;1.00;;;;;;5014408;28;20443;-88
2022/08/11 06:54:31;;;;;;;0.90;0.40;;;29.30;1.00;;;;;;5014032;28;20902;-88
2022/08/11 07:02:32;;;;;;;0.90;0.50;;;29.30;1.00;;;;;;5013859;28;20401;-88
2022/08/11 07:05:01;;;;;;;1.20;0.60;;;29.60;1.00;;;;;;5012498;28;20815;-88
2022/08/11 07:16:28;;;;;;;1.30;0.50;;;30.30;1.00;;;;;;5013662;28;20848;-87
2022/08/11 07:30:43;;;;;;;0.80;0.50;;;30.70;1.00;;;;;;5004688;28;20385;-90
2022/08/11 07:33:12;;;;;;;0.60;0.30;;;31.00;1.00;;;;;;5003979;28;20626;-90
2022/08/11 07:35:44;;;;;;;1.43;0.67;;;31.30;1.00;;;;;;5009682;28;20444;-91
2022/08/11 07:38:18;;;;;;;1.53;0.77;;;31.40;1.00;;;;;;5011589;28;20422;-91
2022/08/11 07:40:45;;;;;;;1.10;0.60;;;31.90;1.00;;;;;;5012782;28;20445;-90
2022/08/11 07:43:12;;;;;;;0.90;0.60;;;31.10;1.00;;;;;;5014186;28;20422;-90
2022/08/11 07:54:05;;;;;;;1.27;0.50;;;32.10;1.00;;;;;;5014080;28;20425;-89
2022/08/11 07:56:35;;;;;;;0.60;0.40;;;31.50;1.00;;;;;;5012682;28;20414;-90
2022/08/11 08:18:25;;;;;;;1.10;0.80;;;31.60;1.00;;;;;;5019522;28;20421;-95
2022/08/11 08:20:53;;;;;;;1.10;0.53;;;32.30;1.00;;;;;;5021636;28;20418;-95
2022/08/11 08:23:31;;;;;;;1.50;0.60;;;31.90;1.00;;;;;;5039821;28;20173;-91
2022/08/11 08:26:02;;;;;;;0.80;0.53;;;32.60;1.00;;;;;;5039638;28;20521;-89
2022/08/11 08:28:28;;;;;;;1.00;0.80;;;32.80;1.00;;;;;;5041627;28;20436;-92
2022/08/11 08:30:55;;;;;;;1.00;0.80;;;33.20;1.00;;;;;;5041419;28;20429;-90
2022/08/11 08:33:23;;;;;;;2.40;0.90;;;33.40;1.00;;;;;;5032149;28;20433;-96
2022/08/11 08:36:10;;;;;;;1.27;0.97;;;33.70;1.00;;;;;;5020285;28;20485;-95
2022/08/11 08:39:01;;;;;;;1.37;1.10;;;34.00;1.00;;;;;;5020018;28;20820;-95
2022/08/11 08:41:31;;;;;;;1.53;0.90;;;33.90;1.00;;;;;;5014372;28;20775;-96
2022/08/11 08:44:01;;;;;;;1.20;1.10;;;33.50;1.00;;;;;;5017644;28;20452;-96
2022/08/11 08:46:33;;;;;;;1.43;0.50;;;33.30;1.00;;;;;;5000844;28;20446;-91
2022/08/11 08:49:01;;;;;;;0.80;0.70;;;33.50;1.00;;;;;;4997324;28;20426;-96
2022/08/11 08:51:33;;;;;;;1.30;0.83;;;34.00;1.00;;;;;;4997530;28;20824;-95
2022/08/11 08:54:04;;;;;;;1.23;0.63;;;33.70;1.00;;;;;;4998449;28;20640;-95
2022/08/11 08:56:33;;;;;;;0.80;0.70;;;34.10;1.00;;;;;;5000005;28;20516;-94
2022/08/11 08:59:03;;;;;;;1.33;1.23;;;34.60;1.00;;;;;;5005195;28;20434;-92
2022/08/11 09:01:34;;;;;;;1.17;0.90;;;35.10;1.00;;;;;;5000864;28;20438;-92
2022/08/11 09:04:02;;;;;;;1.57;1.27;;;35.30;1.00;;;;;;5000452;28;20411;-91
2022/08/11 09:06:31;;;;;;;1.30;1.20;;;34.70;1.00;;;;;;4998173;28;20457;-91
2022/08/11 09:08:57;;;;;;;1.10;1.00;;;35.00;1.00;;;;;;4987105;28;20426;-94
2022/08/11 09:14:08;;;;;;;1.90;1.20;;;34.80;1.00;;;;;;5065601;22;20284;-89
2022/08/11 09:16:35;;;;;;;1.50;1.40;;;34.00;1.00;;;;;;5037107;28;20460;-90
2022/08/11 09:19:01;;;;;;;1.10;1.00;;;34.90;1.00;;;;;;5048032;22;20535;-93
2022/08/11 09:21:28;;;;;;;1.10;1.00;;;35.20;1.00;;;;;;5045055;22;20503;-90
2022/08/11 09:26:58;;;;;;;1.43;1.33;;;34.60;1.00;;;;;;5053069;22;20514;-90
2022/08/11 09:29:28;;;;;;;1.57;1.20;;;34.40;1.00;;;;;;5026265;28;20507;-94
2022/08/11 09:31:56;;;;;;;1.27;1.17;;;34.80;1.00;;;;;;5057091;28;20413;-94
2022/08/11 09:34:25;;;;;;;2.40;1.37;;;35.20;1.00;;;;;;5019290;28;20527;-94
2022/08/11 09:44:45;;;;;;;1.57;0.83;;;34.90;1.00;;;;;;5042524;23;20638;-95
2022/08/11 09:45:13;;;;;;;1.23;0.87;;;35.20;1.00;;;;;;5024443;28;20409;-95
2022/08/11 09:47:39;;;;;;;1.20;0.90;;;35.30;1.00;;;;;;5027096;28;20414;-95
2022/08/11 09:50:07;;;;;;;0.70;0.67;;;34.80;1.00;;;;;;5020586;28;20422;-94
2022/08/11 09:52:39;;;;;;;1.13;0.97;;;35.20;1.00;;;;;;5024100;28;20430;-93
2022/08/11 09:55:09;;;;;;;1.23;0.53;;;35.20;1.00;;;;;;5002726;28;20425;-94
2022/08/11 10:00:28;;;;;;;0.70;0.70;;;35.60;1.00;;;;;;4998679;28;20506;-94
2022/08/11 10:02:55;;;;;;;0.60;0.40;;;35.60;1.00;;;;;;4986504;28;20422;-92
2022/08/11 10:08:10;;;;;;;1.00;0.90;;;35.50;1.00;;;;;;4997789;28;20470;-94
2022/08/11 10:10:38;;;;;;;0.70;0.70;;;35.70;1.00;;;;;;4999195;28;20473;-93
2022/08/11 10:13:17;;;;;;;0.70;0.70;;;36.10;1.00;;;;;;4999033;28;20417;-96
2022/08/11 10:15:45;;;;;;;1.10;1.00;;;35.50;1.00;;;;;;4997310;28;20457;-96
2022/08/11 10:18:41;;;;;;;0.90;0.80;;;34.50;1.00;;;;;;4994642;28;20415;-92
2022/08/11 10:21:40;;;;;;;1.03;0.77;;;35.20;1.00;;;;;;5001615;28;20475;-96
2022/08/11 10:26:54;;;;;;;1.20;0.63;;;34.80;1.00;;;;;;5000470;28;20426;-95
2022/08/11 10:35:11;;;;;;;1.17;1.00;;;35.60;1.00;;;;;;5001629;28;20422;-93
2022/08/11 10:37:37;;;;;;;0.50;0.50;;;35.40;1.00;;;;;;5023442;28;20792;-93
2022/08/11 10:40:07;;;;;;;1.10;1.00;;;36.00;1.00;;;;;;5018853;28;20425;-96
2022/08/11 10:48:05;;;;;;;1.13;0.90;;;35.10;1.00;;;;;;5017740;28;20408;-93
2022/08/11 10:58:49;;;;;;;0.57;0.57;;;35.20;1.00;;;;;;5024074;28;20412;-96
2022/08/11 11:01:18;;;;;;;2.20;0.83;;;35.60;1.00;;;;;;5023434;28;20436;-96
2022/08/11 11:03:45;;;;;;;0.87;0.80;;;36.20;1.00;;;;;;5017845;28;20425;-94
2022/08/11 11:06:25;;;;;;;0.67;0.67;;;36.20;1.00;;;;;;5021557;28;20437;-96
2022/08/11 11:08:54;;;;;;;1.13;1.13;;;;;;;;;;5019427;28;20939;-95
2022/08/11 11:17:54;;;;;;;1.40;1.30;;;36.40;1.00;;;;;;5013180;28;20422;-90
2022/08/11 11:19:52;;;;;;;1.10;1.00;;;36.40;1.00;;;;;;4996591;28;20929;-89
2022/08/11 11:22:38;;;;;;;2.00;1.77;;;36.30;1.00;;;;;;4995978;28;20414;-90
2022/08/11 11:25:16;;;;;;;1.20;1.10;;;36.30;1.00;;;;;;4993962;28;20422;-91
2022/08/11 11:28:17;;;;;;;1.27;1.15;;;35.60;1.00;;;;;;4996573;28;20454;-90
2022/08/11 11:31:04;;;;;;;1.02;1.02;;;35.70;1.00;;;;;;4995705;28;20414;-90
2022/08/11 11:33:40;;;;;;;0.98;0.90;;;36.20;1.00;;;;;;4994280;28;20418;-90
2022/08/11 11:36:37;;;;;;;1.30;1.00;;;36.60;1.00;;;;;;4994130;28;20282;-95
2022/08/11 11:39:06;;;;;;;0.80;0.80;;;36.60;1.00;;;;;;4994282;28;20415;-90
2022/08/11 11:41:32;;;;;;;0.88;0.88;;;36.30;1.00;;;;;;4996424;28;20523;-90
2022/08/11 11:44:00;;;;;;;1.00;0.90;;;36.30;1.00;;;;;;4998750;28;20931;-91
2022/08/11 11:46:29;;;;;;;1.02;1.00;;;36.10;1.00;;;;;;4998476;28;20163;-90
2022/08/11 11:49:05;;;;;;;1.27;1.27;;;36.20;1.00;;;;;;4998748;28;20480;-89
2022/08/11 11:51:32;;;;;;;1.20;1.20;;;36.20;1.00;;;;;;5000028;28;20194;-92
2022/08/11 11:54:01;;;;;;;0.80;0.80;;;36.10;1.00;;;;;;5004253;28;20171;-92
2022/08/11 11:56:28;;;;;;;0.87;0.87;;;36.10;1.00;;;;;;5002982;28;20515;-93
2022/08/11 12:01:38;;;;;;;0.82;0.82;;;36.80;1.00;;;;;;5000928;28;20505;-92
2022/08/11 12:04:05;;;;;;;1.08;1.08;;;36.40;1.00;;;;;;5000544;28;20458;-93
2022/08/11 12:06:31;;;;;;;0.98;0.98;;;36.40;1.00;;;;;;4985689;28;20242;-94
2022/08/11 12:09:04;;;;;;;1.27;1.27;;;36.30;1.00;;;;;;5006349;28;20209;-90
2022/08/11 12:14:19;;;;;;;1.10;1.10;;;36.30;1.00;;;;;;5007590;28;20186;-90
2022/08/11 12:16:46;;;;;;;1.40;1.30;;;36.30;1.00;;;;;;5008200;28;20224;-90
2022/08/11 12:19:15;;;;;;;1.30;1.30;;;36.20;1.00;;;;;;5007005;28;20166;-92
2022/08/11 12:27:30;;;;;;;1.50;1.50;;;35.90;1.00;;;;;;4994977;28;20301;-93
2022/08/11 12:29:59;;;;;;;1.40;1.40;;;35.60;1.00;;;;;;5013160;28;20582;-93
2022/08/11 12:32:30;;;;;;;1.45;1.45;;;36.10;1.00;;;;;;5012257;28;20166;-93
2022/08/11 12:34:56;;;;;;;1.33;1.15;;;35.90;1.00;;;;;;5017660;28;20182;-91
2022/08/11 12:37:28;;;;;;;1.20;1.15;;;35.90;1.00;;;;;;5017092;28;20218;-92
2022/08/11 12:45:31;;;;;;;2.60;1.38;;;35.60;1.00;;;;;;4998543;28;20206;-94
2022/08/11 12:53:50;;;;;;;1.38;1.38;;;36.00;1.00;;;;;;4998420;28;20190;-93
2022/08/11 13:04:54;;;;;;;1.35;1.25;;;35.90;1.00;;;;;;4997389;28;20182;-92
2022/08/11 13:07:21;;;;;;;0.90;0.90;;;36.00;1.00;;;;;;4996402;28;20214;-90
2022/08/11 13:09:48;;;;;;;1.05;0.98;;;35.50;1.00;;;;;;4997240;28;20171;-91
2022/08/11 13:15:00;;;;;;;0.80;0.80;;;35.30;1.00;;;;;;4997303;28;20414;-89
2022/08/11 13:17:28;;;;;;;0.90;0.90;;;35.10;1.00;;;;;;4995422;28;20419;-94
2022/08/11 13:19:56;;;;;;;0.73;0.73;;;35.30;1.00;;;;;;4997943;28;20444;-90
2022/08/11 13:22:23;;;;;;;0.75;0.75;;;35.60;1.00;;;;;;4997393;28;20477;-93
2022/08/11 13:24:50;;;;;;;1.23;1.08;;;35.90;1.00;;;;;;4998389;28;20159;-90
2022/08/11 13:27:17;;;;;;;1.02;1.00;;;35.30;1.00;;;;;;4996167;28;20218;-93
2022/08/11 13:29:46;;;;;;;0.90;0.90;;;35.50;1.00;;;;;;4996789;28;20446;-93
2022/08/11 13:32:14;;;;;;;0.98;0.98;;;35.40;1.00;;;;;;4996535;28;20179;-90
2022/08/11 13:34:41;;;;;;;1.03;0.93;;;35.20;1.00;;;;;;4998165;28;20418;-90
2022/08/11 13:37:08;;;;;;;1.00;1.00;;;34.60;1.00;;;;;;4996128;28;20423;-93
2022/08/11 13:39:35;;;;;;;1.05;1.05;;;34.60;1.00;;;;;;4995689;28;20415;-89
2022/08/11 13:42:03;;;;;;;0.90;0.90;;;34.60;1.00;;;;;;4995645;28;20527;-94
2022/08/11 13:44:31;;;;;;;0.70;0.70;;;34.30;1.00;;;;;;4995947;28;20852;-94
2022/08/11 13:47:03;;;;;;;0.70;0.67;;;34.30;1.00;;;;;;4996690;28;20462;-92
2022/08/11 13:49:31;;;;;;;0.83;0.83;;;33.50;1.00;;;;;;4996855;28;20394;-91
2022/08/11 13:51:57;;;;;;;1.67;0.63;;;33.70;1.00;;;;;;4995450;28;20468;-90
2022/08/11 13:54:27;;;;;;;0.73;0.50;;;33.60;1.00;;;;;;4998583;28;21153;-90
2022/08/11 13:56:59;;;;;;;0.80;0.80;;;33.70;1.00;;;;;;5002546;28;20498;-90
2022/08/11 13:59:26;;;;;;;0.70;0.30;;;33.00;1.00;;;;;;5003634;28;20506;-95
2022/08/11 14:01:54;;;;;;;0.60;0.50;;;33.20;1.00;;;;;;5012612;28;20827;-91
2022/08/11 14:04:29;;;;;;;0.63;0.20;;;33.20;1.00;;;;;;5008419;28;20413;-92
2022/08/11 14:06:58;;;;;;;1.10;0.27;;;32.60;1.00;;;;;;5005826;28;20549;-90
2022/08/11 14:09:27;;;;;;;0.80;0.30;;;32.50;1.00;;;;;;5006655;28;20425;-92
2022/08/11 14:14:48;;;;;;;0.97;0.30;;;32.60;1.00;;;;;;5015864;28;20426;-95
2022/08/11 14:17:17;;;;;;;0.50;0.20;;;32.50;1.00;;;;;;5014878;28;20484;-89
2022/08/11 14:19:46;;;;;;;0.50;0.30;;;32.40;1.00;;;;;;5015731;28;20903;-90
2022/08/11 14:22:14;;;;;;;0.70;0.43;;;32.40;1.00;;;;;;5015414;28;20418;-92
2022/08/11 14:24:42;;;;;;;0.77;0.40;;;32.50;1.00;;;;;;5015494;28;20501;-91
2022/08/11 14:27:11;;;;;;;1.17;0.30;;;32.50;1.00;;;;;;5013899;28;20897;-90
2022/08/11 14:29:40;;;;;;;1.33;0.30;;;32.30;1.00;;;;;;5015140;28;20426;-89
2022/08/11 14:32:08;;;;;;;0.60;0.27;;;32.50;1.00;;;;;;5013388;28;20454;-90
2022/08/11 14:34:37;;;;;;;0.40;0.20;;;32.40;1.00;;;;;;5015300;28;20513;-90
2022/08/11 14:37:09;;;;;;;0.60;0.20;;;32.20;1.00;;;;;;5013879;28;20646;-89
2022/08/11 14:39:42;;;;;;;0.67;0.20;;;32.20;1.00;;;;;;5015202;28;20422;-90
2022/08/11 14:47:03;;;;;;;0.80;0.30;;;32.10;1.00;;;;;;5015353;28;20767;-89
2022/08/11 14:47:50;;;;;;;0.77;0.47;;;32.00;1.00;;;;;;5015665;28;20422;-94
2022/08/11 14:50:24;;;;;;;0.60;0.30;;;31.50;1.00;;;;;;5014522;28;20434;-92
2022/08/11 14:52:56;;;;;;;0.93;0.30;;;31.60;1.00;;;;;;4998477;28;20521;-90
2022/08/11 14:58:15;;;;;;;0.50;0.40;;;31.60;1.00;;;;;;4995504;28;20461;-91
2022/08/11 15:00:41;;;;;;;0.60;0.30;;;31.50;1.00;;;;;;4994253;28;20936;-91
2022/08/11 15:03:10;;;;;;;0.67;0.33;;;31.40;1.00;;;;;;4994126;28;20433;-91
2022/08/11 15:05:50;;;;;;;0.40;0.20;;;31.30;1.00;;;;;;4995120;28;20854;-91
2022/08/11 15:08:17;;;;;;;0.60;0.30;;;31.30;1.00;;;;;;4994974;28;20430;-92
2022/08/11 15:10:44;;;;;;;0.57;0.30;;;31.10;1.00;;;;;;4993805;28;20839;-92
2022/08/11 15:13:10;;;;;;;0.70;0.70;;;31.00;1.00;;;;;;4994048;28;20430;-91
2022/08/11 15:18:23;;;;;;;0.60;0.30;;;30.70;1.00;;;;;;4995315;28;20554;-93
2022/08/11 15:37:44;;;;;;;0.57;0.33;;;30.00;1.00;;;;;;4994590;28;20986;-91
2022/08/11 15:46:16;;;;;;;0.80;0.20;;;29.90;1.00;;;;;;4993748;28;20553;-88
2022/08/11 15:48:50;;;;;;;1.27;0.30;;;29.90;1.00;;;;;;4993867;28;20887;-90
2022/08/11 15:51:25;;;;;;;0.90;0.60;;;29.90;1.00;;;;;;4993199;28;20414;-92
2022/08/11 15:53:54;;;;;;;2.20;0.50;;;29.90;1.00;;;;;;4994324;28;20426;-89
2022/08/11 15:56:24;;;;;;;1.23;0.50;;;29.70;1.00;;;;;;4993949;28;20414;-88
2022/08/11 16:04:25;;;;;;;1.00;0.60;;;29.50;1.00;;;;;;4994114;28;20414;-87
2022/08/11 16:07:08;;;;;;;0.77;0.37;;;29.60;1.00;;;;;;4993973;28;20496;-90
2022/08/11 16:09:51;;;;;;;0.70;0.33;;;29.50;1.00;;;;;;4993612;28;20891;-88
2022/08/11 16:12:27;;;;;;;0.87;0.30;;;29.30;1.00;;;;;;4993560;28;20418;-87
2022/08/11 16:17:44;;;;;;;1.77;0.50;;;29.20;1.00;;;;;;4994003;28;20410;-90
2022/08/11 16:20:13;;;;;;;0.97;0.20;;;29.20;1.00;;;;;;4992782;28;20475;-90
2022/08/11 16:22:42;;;;;;;1.97;0.50;;;29.00;1.00;;;;;;4992743;28;20422;-89
2022/08/11 16:25:11;;;;;;;1.47;0.83;;;28.90;1.00;;;;;;4992897;28;20422;-89
2022/08/11 16:27:42;;;;;;;2.60;0.50;;;28.90;1.00;;;;;;4995050;28;20466;-89
2022/08/11 16:30:09;;;;;;;0.60;0.30;;;28.80;1.00;;;;;;4995980;28;20505;-89
2022/08/11 16:32:38;;;;;;;1.67;0.80;;;28.90;1.00;;;;;;4997447;28;20410;-89
2022/08/11 16:40:42;;;;;;;1.00;0.40;;;28.70;1.00;;;;;;4997695;28;20418;-89
2022/08/11 16:48:44;;;;;;;0.90;0.50;;;28.40;1.00;;;;;;4997653;28;20509;-90
2022/08/11 16:51:11;;;;;;;1.60;0.67;;;28.30;1.00;;;;;;4997195;28;20418;-91
2022/08/11 16:53:39;;;;;;;1.47;0.50;;;28.10;1.00;;;;;;4995938;28;20436;-90
2022/08/11 16:56:06;;;;;;;0.73;0.70;;;28.00;1.00;;;;;;4997108;28;20834;-89
2022/08/11 17:01:21;;;;;;;1.43;0.37;;;28.00;1.00;;;;;;4996965;28;20403;-91
2022/08/11 17:16:05;;;;;;;1.90;0.47;;;27.50;1.00;;;;;;4996816;28;20453;-89
2022/08/11 17:17:55;;;;;;;0.60;0.20;;;27.60;1.00;;;;;;4996572;28;20522;-89
2022/08/11 17:20:22;;;;;;;4.17;0.60;;;27.50;1.00;;;;;;4996761;28;20419;-90
2022/08/11 17:25:34;;;;;;;0.50;0.30;;;27.20;1.00;;;;;;4996935;28;20411;-90
2022/08/11 17:28:02;;;;;;;0.87;0.30;;;27.20;1.00;;;;;;4996422;28;20423;-89
2022/08/11 17:36:01;;;;;;;1.07;0.30;;;27.00;1.00;;;;;;4996798;28;20430;-90
2022/08/11 17:38:28;;;;;;;0.70;0.40;;;27.00;1.00;;;;;;4995991;28;20418;-90
2022/08/11 17:49:15;;;;;;;1.80;0.63;;;26.40;1.00;;;;;;4996026;28;20473;-90
2022/08/11 18:00:00;;;;;;;0.63;0.20;;;26.00;1.00;;;;;;4995909;28;20768;-89
2022/08/11 18:05:25;;;;;;;0.93;0.40;;;25.70;1.00;;;;;;4984590;28;20418;-88
